createdAt,value
2022-08-17T00:00:43.901Z,11.60
2022-08-17T00:03:25.521Z,10.90
2022-08-17T00:06:28.087Z,13.10
2022-08-17T00:09:00.774Z,16.80
2022-08-17T00:11:37.096Z,12.60
2022-08-17T00:14:09.205Z,12.70
2022-08-17T00:16:55.906Z,10.80
2022-08-17T00:19:27.135Z,10.50
2022-08-17T00:24:48.716Z,11.80
2022-08-17T00:27:16.683Z,10.70
2022-08-17T00:29:46.060Z,10.90
2022-08-17T00:33:12.093Z,11.90
2022-08-17T00:35:10.630Z,12.30
2022-08-17T00:37:40.227Z,11.80
2022-08-17T00:40:11.269Z,11.70
2022-08-17T00:42:39.415Z,11.40
2022-08-17T00:45:10.949Z,10.90
2022-08-17T00:47:39.374Z,11.40
2022-08-17T00:50:10.992Z,11.40
2022-08-17T00:52:51.837Z,11.20
2022-08-17T00:55:20.885Z,10.20
2022-08-17T00:57:55.514Z,12.40
2022-08-17T01:00:32.235Z,12.20
2022-08-17T01:03:07.813Z,11.90
2022-08-17T01:05:42.089Z,12.20
2022-08-17T01:08:17.449Z,11.30
2022-08-17T01:10:59.139Z,13.10
2022-08-17T01:13:40.770Z,14.10
2022-08-17T01:18:48.442Z,13.10
2022-08-17T01:21:51.546Z,11.50
2022-08-17T01:24:19.527Z,11.50
2022-08-17T01:26:47.546Z,10.50
2022-08-17T01:29:18.945Z,11.90
2022-08-17T01:31:52.499Z,13.10
2022-08-17T01:34:21.688Z,12.10
2022-08-17T01:36:50.596Z,13.20
2022-08-17T01:41:56.372Z,13.60
2022-08-17T01:44:28.427Z,12.30
2022-08-17T01:46:56.842Z,12.70
2022-08-17T01:49:25.210Z,13.60
2022-08-17T01:51:55.155Z,12.10
2022-08-17T01:54:25.159Z,11.60
2022-08-17T01:56:54.366Z,10.60
2022-08-17T01:59:22.394Z,14.70
2022-08-17T02:01:50.730Z,12.10
2022-08-17T02:04:19.559Z,13.10
2022-08-17T02:09:25.805Z,14.30
2022-08-17T02:11:58.710Z,11.70
2022-08-17T02:14:26.953Z,12.10
2022-08-17T02:16:54.838Z,16.80
2022-08-17T02:19:24.279Z,12.60
2022-08-17T02:21:56.682Z,14.20
2022-08-17T02:25:00.131Z,14.10
2022-08-17T02:27:21.770Z,13.60
2022-08-17T02:29:49.868Z,14.80
2022-08-17T02:32:28.226Z,13.90
2022-08-17T02:34:59.220Z,15.20
2022-08-17T02:37:30.454Z,12.80
2022-08-17T02:40:00.002Z,11.10
2022-08-17T02:42:41.012Z,12.70
2022-08-17T02:45:16.677Z,13.50
2022-08-17T02:47:46.582Z,18.00
2022-08-17T02:50:19.348Z,15.20
2022-08-17T02:53:01.369Z,15.20
2022-08-17T02:55:37.188Z,19.80
2022-08-17T02:58:07.466Z,22.80
2022-08-17T03:00:41.318Z,23.20
2022-08-17T03:03:11.098Z,21.60
2022-08-17T03:05:40.000Z,18.80
2022-08-17T03:10:43.224Z,22.40
2022-08-17T03:13:14.886Z,20.40
2022-08-17T03:15:47.447Z,19.50
2022-08-17T03:18:24.663Z,19.40
2022-08-17T03:20:56.751Z,16.50
2022-08-17T03:23:25.937Z,16.60
2022-08-17T03:25:56.069Z,16.00
2022-08-17T03:28:26.116Z,14.90
2022-08-17T03:30:56.107Z,18.20
2022-08-17T03:33:26.119Z,14.00
2022-08-17T03:35:54.128Z,13.10
2022-08-17T03:38:23.882Z,16.10
2022-08-17T03:40:57.338Z,13.60
2022-08-17T03:43:32.504Z,13.90
2022-08-17T03:46:28.865Z,13.10
2022-08-17T03:49:25.041Z,16.00
2022-08-17T03:52:16.399Z,15.90
2022-08-17T03:55:05.153Z,15.30
2022-08-17T03:57:33.264Z,16.20
2022-08-17T04:00:01.563Z,15.20
2022-08-17T04:05:09.763Z,14.40
2022-08-17T04:07:37.589Z,14.00
2022-08-17T04:10:06.453Z,17.80
2022-08-17T04:12:51.365Z,16.50
2022-08-17T04:15:20.602Z,15.30
2022-08-17T04:17:48.500Z,13.40
2022-08-17T04:20:18.905Z,14.50
2022-08-17T04:23:09.821Z,15.00
2022-08-17T04:25:42.117Z,15.10
2022-08-17T04:28:16.119Z,14.90
2022-08-17T04:30:45.574Z,14.20
2022-08-17T04:33:21.137Z,14.20
2022-08-17T04:35:52.662Z,14.40
2022-08-17T04:38:27.302Z,13.10
2022-08-17T04:41:19.971Z,13.20
2022-08-17T04:43:50.440Z,11.40
2022-08-17T04:46:20.540Z,13.90
2022-08-17T04:48:51.166Z,16.30
2022-08-17T04:51:38.935Z,16.00
2022-08-17T04:54:17.429Z,15.10
2022-08-17T04:56:46.385Z,14.70
2022-08-17T05:01:50.639Z,15.90
2022-08-17T05:04:34.229Z,17.60
2022-08-17T05:07:05.735Z,15.30
2022-08-17T05:09:33.888Z,15.30
2022-08-17T05:12:02.823Z,15.00
2022-08-17T05:14:33.738Z,17.00
2022-08-17T05:17:07.478Z,15.00
2022-08-17T05:19:42.167Z,15.20
2022-08-17T05:22:11.212Z,15.10
2022-08-17T05:24:43.462Z,17.50
2022-08-17T05:27:23.617Z,20.50
2022-08-17T05:29:52.183Z,19.30
2022-08-17T05:32:39.624Z,16.70
2022-08-17T05:35:08.685Z,13.80
2022-08-17T05:37:37.751Z,15.30
2022-08-17T05:40:07.247Z,19.10
2022-08-17T05:42:35.727Z,16.90
2022-08-17T05:45:04.934Z,13.30
2022-08-17T05:47:33.199Z,14.20
2022-08-17T05:50:02.960Z,13.60
2022-08-17T05:52:47.820Z,13.90
2022-08-17T05:55:22.680Z,12.90
2022-08-17T05:58:13.777Z,13.20
2022-08-17T06:00:56.206Z,12.90
2022-08-17T06:03:30.088Z,16.10
2022-08-17T06:06:06.829Z,12.60
2022-08-17T06:08:54.197Z,12.50
2022-08-17T06:11:41.718Z,13.60
2022-08-17T06:14:26.866Z,14.20
2022-08-17T06:17:02.773Z,14.20
2022-08-17T06:19:57.775Z,16.50
2022-08-17T06:22:34.102Z,14.70
2022-08-17T06:25:32.293Z,13.60
2022-08-17T06:28:08.380Z,14.90
2022-08-17T06:31:00.271Z,12.30
2022-08-17T06:33:49.799Z,13.90
2022-08-17T06:36:28.238Z,13.10
2022-08-17T06:39:23.667Z,12.00
2022-08-17T06:41:56.944Z,9.90
2022-08-17T06:44:50.723Z,12.70
2022-08-17T06:47:31.878Z,11.90
2022-08-17T06:50:07.430Z,12.50
2022-08-17T06:52:50.006Z,11.10
2022-08-17T06:55:34.470Z,11.30
2022-08-17T06:58:15.802Z,12.50
2022-08-17T07:00:49.356Z,11.60
2022-08-17T07:03:27.506Z,11.30
2022-08-17T07:06:13.015Z,12.90
2022-08-17T07:08:59.990Z,12.20
2022-08-17T07:11:40.270Z,11.10
2022-08-17T07:14:31.410Z,12.20
2022-08-17T07:17:14.699Z,14.80
2022-08-17T07:19:45.855Z,10.20
2022-08-17T07:22:25.085Z,15.60
2022-08-17T07:25:20.922Z,12.80
2022-08-17T07:28:00.126Z,13.90
2022-08-17T07:30:31.936Z,12.10
2022-08-17T07:33:27.107Z,15.40
2022-08-17T07:35:57.611Z,15.80
2022-08-17T07:38:55.057Z,11.10
2022-08-17T07:41:23.649Z,14.00
2022-08-17T07:43:54.259Z,14.00
2022-08-17T07:46:54.307Z,11.30
2022-08-17T07:49:35.038Z,16.00
2022-08-17T07:52:24.025Z,14.10
2022-08-17T07:55:06.914Z,12.70
2022-08-17T07:57:40.854Z,12.20
2022-08-17T08:00:17.933Z,13.50
2022-08-17T08:02:59.438Z,11.50
2022-08-17T08:05:49.371Z,14.40
2022-08-17T08:08:22.226Z,11.00
2022-08-17T08:11:01.693Z,9.40
2022-08-17T08:13:33.093Z,12.60
2022-08-17T08:16:24.647Z,9.30
2022-08-17T08:18:57.550Z,9.00
2022-08-17T08:22:00.284Z,11.00
2022-08-17T08:24:35.055Z,10.00
2022-08-17T08:27:44.388Z,14.00
2022-08-17T08:30:18.048Z,8.90
2022-08-17T08:33:17.369Z,11.20
2022-08-17T08:36:14.634Z,11.90
2022-08-17T08:39:16.351Z,10.00
2022-08-17T08:42:03.907Z,9.70
2022-08-17T08:44:59.879Z,8.50
2022-08-17T08:47:51.978Z,9.20
2022-08-17T08:50:38.035Z,10.60
2022-08-17T08:53:54.668Z,10.80
2022-08-17T08:56:35.485Z,7.90
2022-08-17T08:59:19.454Z,8.70
2022-08-17T09:02:34.927Z,8.90
2022-08-17T09:05:39.480Z,11.10
2022-08-17T09:08:35.949Z,9.50
2022-08-17T09:11:34.236Z,10.40
2022-08-17T09:14:31.858Z,9.80
2022-08-17T09:17:22.602Z,9.60
2022-08-17T09:19:57.951Z,10.20
2022-08-17T09:22:31.887Z,9.80
2022-08-17T09:25:10.112Z,8.60
2022-08-17T09:30:12.248Z,9.80
2022-08-17T09:32:44.216Z,8.20
2022-08-17T09:35:25.280Z,11.30
2022-08-17T09:38:39.919Z,8.90
2022-08-17T09:41:28.464Z,8.90
2022-08-17T09:44:13.867Z,7.90
2022-08-17T09:47:30.679Z,8.00
2022-08-17T09:50:55.454Z,9.70
2022-08-17T09:53:19.942Z,8.70
2022-08-17T09:56:05.513Z,11.00
2022-08-17T09:58:53.207Z,8.10
2022-08-17T10:01:35.716Z,11.30
2022-08-17T10:04:39.190Z,8.20
2022-08-17T10:07:19.525Z,7.70
2022-08-17T10:10:14.308Z,10.60
2022-08-17T10:12:53.150Z,8.40
2022-08-17T10:15:49.938Z,8.90
2022-08-17T10:18:31.902Z,10.40
2022-08-17T10:21:24.766Z,7.50
2022-08-17T10:24:39.512Z,7.50
2022-08-17T10:28:06.866Z,8.70
2022-08-17T10:30:48.283Z,9.00
2022-08-17T10:33:57.620Z,7.60
2022-08-17T10:36:46.812Z,8.60
2022-08-17T10:39:30.958Z,8.60
2022-08-17T10:42:12.862Z,9.70
2022-08-17T10:45:26.387Z,7.50
2022-08-17T10:48:05.681Z,9.50
2022-08-17T10:50:46.317Z,7.70
2022-08-17T10:53:54.126Z,7.10
2022-08-17T10:56:24.377Z,7.90
2022-08-17T10:58:59.083Z,7.50
2022-08-17T11:01:33.342Z,10.10
2022-08-17T11:04:26.650Z,8.80
2022-08-17T11:07:02.398Z,9.10
2022-08-17T11:10:04.395Z,8.60
2022-08-17T11:12:57.082Z,7.70
2022-08-17T11:15:46.099Z,6.90
2022-08-17T11:18:40.813Z,6.50
2022-08-17T11:21:18.097Z,7.30
2022-08-17T11:24:12.839Z,6.30
2022-08-17T11:26:47.880Z,7.10
2022-08-17T11:29:29.550Z,8.60
2022-08-17T11:32:04.926Z,6.70
2022-08-17T11:34:35.317Z,7.70
2022-08-17T11:37:18.630Z,8.60
2022-08-17T11:40:08.491Z,6.40
2022-08-17T11:42:45.664Z,6.60
2022-08-17T11:45:44.205Z,8.20
2022-08-17T11:48:59.019Z,6.90
2022-08-17T11:52:00.092Z,6.60
2022-08-17T11:54:39.368Z,6.20
2022-08-17T11:57:29.418Z,7.00
2022-08-17T12:00:09.926Z,7.20
2022-08-17T12:02:48.141Z,5.50
2022-08-17T12:05:26.225Z,7.00
2022-08-17T12:08:00.204Z,6.50
2022-08-17T12:10:34.515Z,6.90
2022-08-17T12:13:15.967Z,6.00
2022-08-17T12:15:50.440Z,5.70
2022-08-17T12:18:21.828Z,7.10
2022-08-17T12:21:09.532Z,8.20
2022-08-17T12:24:07.881Z,6.80
2022-08-17T12:26:37.133Z,6.90
2022-08-17T12:29:18.083Z,6.10
2022-08-17T12:32:02.681Z,5.70
2022-08-17T12:34:39.319Z,9.30
2022-08-17T12:37:15.528Z,4.90
2022-08-17T12:39:57.985Z,6.30
2022-08-17T12:42:33.745Z,5.40
2022-08-17T12:45:01.878Z,7.40
2022-08-17T12:47:30.554Z,5.80
2022-08-17T12:50:28.458Z,6.30
2022-08-17T12:53:01.963Z,6.40
2022-08-17T12:55:37.635Z,5.60
2022-08-17T12:58:13.610Z,7.50
2022-08-17T13:00:50.935Z,6.60
2022-08-17T13:03:23.134Z,5.80
2022-08-17T13:06:15.189Z,6.60
2022-08-17T13:08:48.565Z,8.70
2022-08-17T13:11:24.419Z,6.60
2022-08-17T13:13:56.239Z,8.90
2022-08-17T13:16:27.996Z,5.50
2022-08-17T13:19:18.944Z,6.10
2022-08-17T13:22:15.535Z,6.40
2022-08-17T13:24:54.280Z,4.90
2022-08-17T13:27:25.841Z,6.70
2022-08-17T13:30:08.440Z,7.30
2022-08-17T13:32:47.595Z,5.60
2022-08-17T13:35:33.426Z,8.70
2022-08-17T13:38:13.012Z,6.20
2022-08-17T13:40:49.356Z,6.70
2022-08-17T13:43:39.509Z,6.60
2022-08-17T13:46:35.096Z,6.60
2022-08-17T13:49:06.729Z,7.80
2022-08-17T13:51:50.428Z,6.10
2022-08-17T13:54:32.869Z,7.60
2022-08-17T13:57:20.032Z,5.40
2022-08-17T13:59:54.656Z,7.20
2022-08-17T14:02:28.801Z,6.00
2022-08-17T14:04:58.725Z,6.30
2022-08-17T14:07:33.916Z,5.90
2022-08-17T14:10:03.192Z,5.70
2022-08-17T14:12:39.727Z,5.80
2022-08-17T14:15:12.447Z,7.30
2022-08-17T14:17:40.426Z,7.10
2022-08-17T14:20:13.076Z,6.00
2022-08-17T14:22:45.335Z,7.80
2022-08-17T14:25:16.434Z,7.80
2022-08-17T14:27:52.777Z,5.00
2022-08-17T14:30:24.632Z,7.70
2022-08-17T14:32:53.642Z,7.20
2022-08-17T14:35:25.470Z,6.10
2022-08-17T14:37:54.157Z,8.80
2022-08-17T14:40:24.990Z,6.10
2022-08-17T14:42:55.419Z,6.70
2022-08-17T14:45:32.415Z,8.50
2022-08-17T14:48:07.989Z,5.80
2022-08-17T14:50:38.922Z,5.50
2022-08-17T14:53:15.132Z,8.50
2022-08-17T14:55:45.795Z,6.00
2022-08-17T14:58:15.368Z,5.60
2022-08-17T15:00:43.697Z,5.90
2022-08-17T15:03:12.412Z,6.10
2022-08-17T15:05:41.075Z,5.40
2022-08-17T15:08:11.120Z,5.80
2022-08-17T15:10:39.461Z,4.80
2022-08-17T15:13:20.185Z,5.40
2022-08-17T15:15:48.560Z,5.00
2022-08-17T15:18:18.735Z,6.80
2022-08-17T15:20:52.398Z,6.90
2022-08-17T15:23:23.228Z,4.50
2022-08-17T15:25:53.828Z,5.30
2022-08-17T15:28:23.037Z,7.60
2022-08-17T15:30:52.496Z,6.60
2022-08-17T15:33:29.496Z,5.90
2022-08-17T15:36:00.829Z,5.50
2022-08-17T15:38:30.178Z,5.00
2022-08-17T15:41:00.191Z,5.50
2022-08-17T15:43:33.995Z,6.00
2022-08-17T15:46:05.889Z,5.00
2022-08-17T15:48:43.450Z,4.90
2022-08-17T15:51:18.459Z,5.60
2022-08-17T15:53:52.333Z,5.80
2022-08-17T15:56:20.935Z,5.10
2022-08-17T15:58:49.510Z,5.60
2022-08-17T16:02:22.366Z,5.80
2022-08-17T16:04:30.639Z,4.30
2022-08-17T16:06:58.990Z,4.70
2022-08-17T16:09:28.646Z,4.90
2022-08-17T16:11:56.727Z,5.80
2022-08-17T16:14:32.516Z,7.30
2022-08-17T16:17:04.730Z,7.40
2022-08-17T16:19:34.256Z,5.90
2022-08-17T16:22:03.863Z,6.60
2022-08-17T16:24:33.173Z,6.40
2022-08-17T16:27:01.584Z,5.70
2022-08-17T16:29:29.447Z,7.10
2022-08-17T16:31:58.278Z,4.90
2022-08-17T16:34:25.938Z,5.50
2022-08-17T16:36:56.442Z,6.90
2022-08-17T16:39:27.553Z,6.20
2022-08-17T16:41:56.186Z,6.50
2022-08-17T16:44:25.917Z,7.10
2022-08-17T16:46:54.170Z,5.80
2022-08-17T16:49:34.448Z,5.60
2022-08-17T16:52:05.934Z,4.90
2022-08-17T16:54:35.677Z,6.70
2022-08-17T16:57:05.456Z,5.80
2022-08-17T16:59:41.112Z,8.40
2022-08-17T17:02:15.044Z,5.10
2022-08-17T17:05:11.636Z,6.70
2022-08-17T17:08:09.239Z,6.20
2022-08-17T17:10:44.881Z,5.60
2022-08-17T17:13:27.987Z,6.40
2022-08-17T17:15:55.759Z,7.00
2022-08-17T17:18:34.525Z,7.20
2022-08-17T17:21:02.521Z,7.50
2022-08-17T17:23:55.019Z,7.60
2022-08-17T17:26:59.874Z,6.00
2022-08-17T17:29:54.509Z,6.30
2022-08-17T17:32:38.113Z,6.40
2022-08-17T17:35:35.989Z,7.60
2022-08-17T17:38:15.236Z,7.60
2022-08-17T17:40:47.616Z,7.60
2022-08-17T17:43:38.367Z,8.10
2022-08-17T17:46:29.052Z,9.10
2022-08-17T17:48:58.735Z,9.20
2022-08-17T17:52:06.835Z,7.90
2022-08-17T17:54:46.360Z,7.80
2022-08-17T17:57:24.969Z,8.40
2022-08-17T18:00:06.904Z,9.30
2022-08-17T18:02:51.995Z,9.20
2022-08-17T18:05:44.332Z,10.50
2022-08-17T18:08:36.613Z,10.80
2022-08-17T18:11:27.014Z,16.00
2022-08-17T18:14:02.560Z,14.60
2022-08-17T18:16:32.841Z,19.20
2022-08-17T18:19:01.649Z,15.50
2022-08-17T18:21:38.054Z,16.90
2022-08-17T18:24:08.717Z,17.40
2022-08-17T18:26:44.997Z,16.10
2022-08-17T18:29:27.932Z,20.00
2022-08-17T18:32:32.671Z,17.00
2022-08-17T18:35:28.358Z,16.10
2022-08-17T18:38:22.082Z,17.20
2022-08-17T18:41:18.336Z,17.70
2022-08-17T18:44:18.868Z,17.50
2022-08-17T18:46:48.094Z,16.50
2022-08-17T18:49:18.977Z,17.40
2022-08-17T18:51:47.134Z,16.50
2022-08-17T18:54:21.134Z,17.90
2022-08-17T18:57:00.074Z,14.80
2022-08-17T18:59:39.825Z,15.30
2022-08-17T19:02:24.834Z,17.60
2022-08-17T19:05:27.113Z,18.40
2022-08-17T19:08:13.934Z,16.70
2022-08-17T19:10:46.084Z,18.70
2022-08-17T19:13:23.404Z,18.80
2022-08-17T19:16:11.764Z,14.80
2022-08-17T19:18:52.999Z,17.10
2022-08-17T19:21:31.080Z,14.00
2022-08-17T19:26:54.052Z,13.90
2022-08-17T19:29:35.159Z,13.30
2022-08-17T19:32:04.307Z,12.90
2022-08-17T19:34:36.988Z,14.20
2022-08-17T19:37:53.415Z,13.00
2022-08-17T19:40:51.774Z,13.10
2022-08-17T19:43:56.564Z,14.50
2022-08-17T19:47:06.216Z,15.60
2022-08-17T19:49:46.678Z,11.20
2022-08-17T19:52:39.420Z,12.90
2022-08-17T19:55:21.489Z,12.30
2022-08-17T19:58:00.987Z,11.70
2022-08-17T20:00:31.327Z,10.10
2022-08-17T20:03:08.147Z,10.80
2022-08-17T20:06:10.771Z,10.40
2022-08-17T20:08:38.970Z,11.30
2022-08-17T20:11:10.797Z,13.70
2022-08-17T20:13:41.770Z,13.20
2022-08-17T20:16:12.684Z,14.30
2022-08-17T20:18:43.948Z,17.00
2022-08-17T20:21:21.900Z,12.70
2022-08-17T20:24:18.650Z,11.30
2022-08-17T20:27:21.806Z,10.40
2022-08-17T20:30:11.137Z,11.80
2022-08-17T20:32:53.208Z,12.10
2022-08-17T20:35:35.541Z,11.30
2022-08-17T20:38:11.093Z,12.30
2022-08-17T20:40:54.656Z,11.60
2022-08-17T20:43:32.830Z,11.50
2022-08-17T20:46:16.018Z,11.40
2022-08-17T20:48:47.775Z,12.40
2022-08-17T20:51:26.698Z,11.80
2022-08-17T20:53:54.549Z,11.00
2022-08-17T20:56:44.976Z,11.50
2022-08-17T20:59:25.621Z,12.00
2022-08-17T21:02:12.430Z,11.50
2022-08-17T21:04:57.414Z,10.30
2022-08-17T21:07:43.044Z,11.90
2022-08-17T21:10:18.244Z,11.80
2022-08-17T21:13:13.894Z,9.60
2022-08-17T21:15:47.622Z,8.70
2022-08-17T21:18:41.396Z,8.40
2022-08-17T21:21:24.771Z,12.10
2022-08-17T21:23:58.154Z,9.50
2022-08-17T21:26:55.645Z,9.70
2022-08-17T21:29:31.547Z,11.80
2022-08-17T21:32:03.101Z,10.90
2022-08-17T21:34:37.410Z,8.80
2022-08-17T21:37:24.179Z,9.70
2022-08-17T21:40:19.139Z,8.30
2022-08-17T21:42:51.232Z,11.50
2022-08-17T21:45:28.936Z,11.80
2022-08-17T21:48:27.487Z,10.10
2022-08-17T21:50:58.789Z,11.40
2022-08-17T21:53:49.902Z,9.90
2022-08-17T21:56:36.674Z,10.30
2022-08-17T21:59:25.160Z,12.20
2022-08-17T22:02:05.953Z,11.80
2022-08-17T22:04:35.439Z,10.70
2022-08-17T22:07:09.053Z,11.20
2022-08-17T22:09:44.707Z,10.50
2022-08-17T22:12:20.746Z,12.20
2022-08-17T22:15:01.359Z,13.30
2022-08-17T22:17:35.926Z,11.20
2022-08-17T22:20:16.894Z,10.40
2022-08-17T22:23:12.929Z,12.10
2022-08-17T22:26:00.267Z,10.80
2022-08-17T22:28:45.939Z,11.60
2022-08-17T22:31:40.163Z,12.10
2022-08-17T22:34:14.801Z,12.80
2022-08-17T22:36:43.185Z,10.30
2022-08-17T22:39:11.179Z,12.60
2022-08-17T22:41:48.659Z,9.70
2022-08-17T22:44:32.199Z,11.60
2022-08-17T22:47:24.250Z,14.60
2022-08-17T22:49:58.004Z,10.90
2022-08-17T22:53:04.394Z,10.10
2022-08-17T22:55:53.168Z,12.90
2022-08-17T22:58:43.518Z,12.60
2022-08-17T23:01:33.383Z,12.10
2022-08-17T23:04:06.138Z,13.60
2022-08-17T23:06:37.282Z,12.20
2022-08-17T23:09:07.371Z,13.30
2022-08-17T23:11:50.182Z,11.70
2022-08-17T23:14:21.265Z,11.50
2022-08-17T23:16:50.330Z,11.30
2022-08-17T23:19:21.363Z,12.20
2022-08-17T23:21:52.874Z,11.80
2022-08-17T23:24:27.037Z,13.00
2022-08-17T23:26:57.655Z,14.10
2022-08-17T23:29:29.550Z,12.40
2022-08-17T23:32:01.407Z,11.90
2022-08-17T23:34:30.892Z,13.20
2022-08-17T23:37:02.854Z,14.00
2022-08-17T23:39:32.801Z,14.90
2022-08-17T23:42:05.593Z,12.10
2022-08-17T23:44:37.151Z,14.30
2022-08-17T23:47:07.985Z,14.30
2022-08-17T23:49:36.625Z,13.10
2022-08-17T23:52:15.244Z,13.00
2022-08-17T23:54:47.820Z,13.80
2022-08-17T23:57:20.165Z,14.30
